createdAt,value
2023-01-05T00:01:27.149Z,5.95
2023-01-05T00:03:54.148Z,5.99
2023-01-05T00:06:21.059Z,5.98
2023-01-05T00:08:48.033Z,5.94
2023-01-05T00:11:41.825Z,6.01
2023-01-05T00:14:41.364Z,6.08
2023-01-05T00:17:29.823Z,6.07
2023-01-05T00:20:15.092Z,6.02
2023-01-05T00:22:50.008Z,6.00
2023-01-05T00:25:23.202Z,6.03
2023-01-05T00:27:51.913Z,6.07
2023-01-05T00:30:21.889Z,6.13
2023-01-05T00:32:49.037Z,6.14
2023-01-05T00:35:16.502Z,6.13
2023-01-05T00:37:45.554Z,6.13
2023-01-05T00:40:16.132Z,6.18
2023-01-05T00:42:43.080Z,6.19
2023-01-05T00:45:12.677Z,6.22
2023-01-05T00:47:39.746Z,6.31
2023-01-05T00:50:07.823Z,6.33
2023-01-05T00:52:35.116Z,6.29
2023-01-05T00:55:04.984Z,6.29
2023-01-05T00:57:31.982Z,6.39
2023-01-05T00:59:58.988Z,6.45
2023-01-05T01:02:26.027Z,6.55
2023-01-05T01:04:52.925Z,6.54
2023-01-05T01:07:19.778Z,6.46
2023-01-05T01:09:46.793Z,6.41
2023-01-05T01:12:13.827Z,6.40
2023-01-05T01:14:40.896Z,6.40
2023-01-05T01:17:08.221Z,6.44
2023-01-05T01:19:39.087Z,6.46
2023-01-05T01:22:06.443Z,6.38
2023-01-05T01:24:37.914Z,6.44
2023-01-05T01:27:12.997Z,6.46
2023-01-05T01:29:40.245Z,6.49
2023-01-05T01:32:07.553Z,6.50
2023-01-05T01:34:40.271Z,6.51
2023-01-05T01:37:07.563Z,6.56
2023-01-05T01:39:43.593Z,6.55
2023-01-05T01:42:14.934Z,6.58
2023-01-05T01:44:52.703Z,6.62
2023-01-05T01:47:29.376Z,6.65
2023-01-05T01:49:58.579Z,6.65
2023-01-05T01:52:27.091Z,6.66
2023-01-05T01:54:54.132Z,6.67
2023-01-05T01:57:21.709Z,6.69
2023-01-05T01:59:48.677Z,6.72
2023-01-05T02:02:15.899Z,6.73
2023-01-05T02:04:46.163Z,6.75
2023-01-05T02:07:17.451Z,6.79
2023-01-05T02:09:44.681Z,6.82
2023-01-05T02:12:57.085Z,6.85
2023-01-05T02:15:25.859Z,6.84
2023-01-05T02:18:04.518Z,6.77
2023-01-05T02:20:54.169Z,6.72
2023-01-05T02:23:45.908Z,6.64
2023-01-05T02:26:16.587Z,6.58
2023-01-05T02:29:01.267Z,6.58
2023-01-05T02:31:37.348Z,6.59
2023-01-05T02:34:20.258Z,6.62
2023-01-05T02:37:11.896Z,6.69
2023-01-05T02:39:52.161Z,6.72
2023-01-05T02:42:26.991Z,6.76
2023-01-05T02:44:54.232Z,6.79
2023-01-05T02:47:27.991Z,6.81
2023-01-05T02:50:17.568Z,6.85
2023-01-05T02:53:06.284Z,6.85
2023-01-05T02:55:38.867Z,6.83
2023-01-05T02:58:24.095Z,6.81
2023-01-05T03:00:54.716Z,6.74
2023-01-05T03:03:31.676Z,6.63
2023-01-05T03:06:09.697Z,6.49
2023-01-05T03:08:43.797Z,6.44
2023-01-05T03:11:30.880Z,6.44
2023-01-05T03:14:06.945Z,6.51
2023-01-05T03:16:38.162Z,6.60
2023-01-05T03:19:28.969Z,6.66
2023-01-05T03:22:15.432Z,6.67
2023-01-05T03:25:02.588Z,6.65
2023-01-05T03:27:50.219Z,6.56
2023-01-05T03:30:40.966Z,6.39
2023-01-05T03:33:42.080Z,6.27
2023-01-05T03:36:09.505Z,6.15
2023-01-05T03:38:45.564Z,6.16
2023-01-05T03:41:15.708Z,6.25
2023-01-05T03:43:44.064Z,6.31
2023-01-05T03:46:19.109Z,6.38
2023-01-05T03:48:45.973Z,6.41
2023-01-05T03:51:13.642Z,6.43
2023-01-05T03:53:40.916Z,6.41
2023-01-05T03:56:07.975Z,6.42
2023-01-05T03:58:35.198Z,6.47
2023-01-05T04:01:02.229Z,6.57
2023-01-05T04:03:32.090Z,6.64
2023-01-05T04:06:02.331Z,6.62
2023-01-05T04:08:31.154Z,6.62
2023-01-05T04:11:19.423Z,6.71
2023-01-05T04:14:00.218Z,6.76
2023-01-05T04:16:28.774Z,6.79
2023-01-05T04:18:58.576Z,6.79
2023-01-05T04:21:26.194Z,6.78
2023-01-05T04:23:55.019Z,6.72
2023-01-05T04:26:23.008Z,6.70
2023-01-05T04:28:50.814Z,6.65
2023-01-05T04:31:20.295Z,6.67
2023-01-05T04:33:48.508Z,6.66
2023-01-05T04:36:19.274Z,6.72
2023-01-05T04:38:46.327Z,6.76
2023-01-05T04:41:13.974Z,6.68
2023-01-05T04:43:45.415Z,6.60
2023-01-05T04:46:14.171Z,6.65
2023-01-05T04:48:42.783Z,6.64
2023-01-05T04:51:10.636Z,6.54
2023-01-05T04:53:38.876Z,6.50
2023-01-05T04:56:08.512Z,6.49
2023-01-05T04:58:39.921Z,6.38
2023-01-05T05:01:07.809Z,6.35
2023-01-05T05:03:36.365Z,6.16
2023-01-05T05:06:06.301Z,6.08
2023-01-05T05:08:33.276Z,6.02
2023-01-05T05:11:02.272Z,5.99
2023-01-05T05:13:31.419Z,5.92
2023-01-05T05:16:03.086Z,5.81
2023-01-05T05:18:31.126Z,5.76
2023-01-05T05:20:58.579Z,5.84
2023-01-05T05:23:30.122Z,5.93
2023-01-05T05:25:58.761Z,5.95
2023-01-05T05:28:28.425Z,5.93
2023-01-05T05:30:56.516Z,5.90
2023-01-05T05:33:24.556Z,5.90
2023-01-05T05:35:51.608Z,5.92
2023-01-05T05:38:18.649Z,5.96
2023-01-05T05:40:45.632Z,6.01
2023-01-05T05:43:12.519Z,6.12
2023-01-05T05:45:40.221Z,6.11
2023-01-05T05:48:09.390Z,6.11
2023-01-05T05:50:36.303Z,6.08
2023-01-05T05:53:06.474Z,5.92
2023-01-05T05:55:35.078Z,5.86
2023-01-05T05:58:01.905Z,5.77
2023-01-05T06:00:28.938Z,5.54
2023-01-05T06:02:56.121Z,5.46
2023-01-05T06:05:23.064Z,5.40
2023-01-05T06:07:49.980Z,5.23
2023-01-05T06:10:16.795Z,5.17
2023-01-05T06:12:43.769Z,5.16
2023-01-05T06:15:11.460Z,5.13
2023-01-05T06:17:38.326Z,5.08
2023-01-05T06:20:06.109Z,4.96
2023-01-05T06:22:32.908Z,4.74
2023-01-05T06:24:59.659Z,4.60
2023-01-05T06:27:26.497Z,4.50
2023-01-05T06:29:53.366Z,4.39
2023-01-05T06:32:20.197Z,4.38
2023-01-05T06:34:47.301Z,4.35
2023-01-05T06:37:14.242Z,4.41
2023-01-05T06:39:41.162Z,4.42
2023-01-05T06:42:08.031Z,4.28
2023-01-05T06:44:34.868Z,4.25
2023-01-05T06:47:01.863Z,4.36
2023-01-05T06:49:28.730Z,4.42
2023-01-05T06:51:55.877Z,4.47
2023-01-05T06:54:23.062Z,4.46
2023-01-05T06:56:49.971Z,4.55
2023-01-05T06:59:16.806Z,4.57
2023-01-05T07:01:44.005Z,4.63
2023-01-05T07:04:10.981Z,4.77
2023-01-05T07:06:37.888Z,4.95
2023-01-05T07:09:04.671Z,5.05
2023-01-05T07:11:31.902Z,5.11
2023-01-05T07:13:58.664Z,5.21
2023-01-05T07:16:25.658Z,5.30
2023-01-05T07:18:52.532Z,5.44
2023-01-05T07:21:19.425Z,5.57
2023-01-05T07:23:46.412Z,5.70
2023-01-05T07:26:13.631Z,5.87
2023-01-05T07:28:40.578Z,6.02
2023-01-05T07:31:07.793Z,6.05
2023-01-05T07:33:40.022Z,6.06
2023-01-05T07:36:09.012Z,6.22
2023-01-05T07:38:35.855Z,6.38
2023-01-05T07:41:03.682Z,6.50
2023-01-05T07:43:30.801Z,6.63
2023-01-05T07:46:02.125Z,6.82
2023-01-05T07:48:29.268Z,6.99
2023-01-05T07:51:03.456Z,7.24
2023-01-05T07:53:31.287Z,7.89
2023-01-05T07:56:00.232Z,9.11
2023-01-05T07:58:28.650Z,10.80
2023-01-05T08:00:56.540Z,12.36
2023-01-05T08:03:23.873Z,13.83
2023-01-05T08:05:50.956Z,14.80
2023-01-05T08:08:24.163Z,15.16
2023-01-05T08:10:51.618Z,15.44
2023-01-05T08:13:37.226Z,15.00
2023-01-05T08:16:04.663Z,13.78
2023-01-05T08:18:31.564Z,13.28
2023-01-05T08:21:01.027Z,13.47
2023-01-05T08:23:31.059Z,13.86
2023-01-05T08:26:03.005Z,14.02
2023-01-05T08:28:35.596Z,13.50
2023-01-05T08:31:08.724Z,12.91
2023-01-05T08:33:35.569Z,12.47
2023-01-05T08:36:02.741Z,11.94
2023-01-05T08:38:29.906Z,11.67
2023-01-05T08:40:59.967Z,11.48
2023-01-05T08:43:27.229Z,11.25
2023-01-05T08:45:54.356Z,11.03
2023-01-05T08:48:23.843Z,10.84
2023-01-05T08:50:50.853Z,10.68
2023-01-05T08:53:17.957Z,10.61
2023-01-05T08:55:44.933Z,10.52
2023-01-05T08:58:14.677Z,10.45
2023-01-05T09:00:41.754Z,10.33
2023-01-05T09:03:09.737Z,10.20
2023-01-05T09:05:36.630Z,10.16
2023-01-05T09:08:05.023Z,10.19
2023-01-05T09:10:31.906Z,10.23
2023-01-05T09:12:59.215Z,10.19
2023-01-05T09:15:28.557Z,10.13
2023-01-05T09:17:55.491Z,10.71
2023-01-05T09:20:22.503Z,12.08
2023-01-05T09:22:49.451Z,13.24
2023-01-05T09:25:16.354Z,13.83
2023-01-05T09:27:43.318Z,14.59
2023-01-05T09:30:10.927Z,15.45
2023-01-05T09:32:37.850Z,15.95
2023-01-05T09:35:05.127Z,16.31
2023-01-05T09:37:31.941Z,16.88
2023-01-05T09:39:58.822Z,17.15
2023-01-05T09:42:27.636Z,17.26
2023-01-05T09:44:59.296Z,17.41
2023-01-05T09:47:38.985Z,17.46
2023-01-05T09:50:09.332Z,17.45
2023-01-05T09:52:38.527Z,17.48
2023-01-05T09:55:19.943Z,17.39
2023-01-05T09:57:51.333Z,17.00
2023-01-05T10:00:18.835Z,17.14
2023-01-05T10:02:59.532Z,17.36
2023-01-05T10:05:27.163Z,17.44
2023-01-05T10:07:58.053Z,17.56
2023-01-05T10:11:14.890Z,17.69
2023-01-05T10:13:51.659Z,17.97
2023-01-05T10:16:18.581Z,17.87
2023-01-05T10:18:45.950Z,17.90
2023-01-05T10:21:25.966Z,17.91
2023-01-05T10:24:30.543Z,17.42
2023-01-05T10:27:25.576Z,17.15
2023-01-05T10:30:26.388Z,17.70
2023-01-05T10:33:14.883Z,18.00
2023-01-05T10:36:05.297Z,18.37
2023-01-05T10:39:12.786Z,18.00
2023-01-05T10:41:59.449Z,18.22
2023-01-05T10:44:41.497Z,18.54
2023-01-05T10:47:09.984Z,19.40
2023-01-05T10:49:37.339Z,19.63
2023-01-05T10:52:06.107Z,19.88
2023-01-05T10:54:38.169Z,19.87
2023-01-05T10:57:35.742Z,19.99
2023-01-05T11:00:19.875Z,19.81
2023-01-05T11:02:59.861Z,19.68
2023-01-05T11:05:35.199Z,19.64
2023-01-05T11:08:07.743Z,19.34
2023-01-05T11:10:36.810Z,19.00
2023-01-05T11:13:16.511Z,18.96
2023-01-05T11:15:48.297Z,18.71
2023-01-05T11:18:36.069Z,18.67
2023-01-05T11:21:25.985Z,18.69
2023-01-05T11:23:54.948Z,18.67
2023-01-05T11:26:21.713Z,18.73
2023-01-05T11:29:17.432Z,18.58
2023-01-05T11:31:59.013Z,18.36
2023-01-05T11:34:27.305Z,18.44
2023-01-05T11:37:07.670Z,18.55
2023-01-05T11:39:47.106Z,18.17
2023-01-05T11:42:24.896Z,18.18
2023-01-05T11:44:58.510Z,18.34
2023-01-05T11:47:49.419Z,17.77
2023-01-05T11:50:22.282Z,17.42
2023-01-05T11:52:51.267Z,17.38
2023-01-05T11:55:24.013Z,16.92
2023-01-05T11:57:59.425Z,17.29
2023-01-05T12:00:54.401Z,17.43
2023-01-05T12:03:58.818Z,17.69
2023-01-05T12:06:54.280Z,17.65
2023-01-05T12:09:35.696Z,17.25
2023-01-05T12:12:21.828Z,17.07
2023-01-05T12:15:00.769Z,16.65
2023-01-05T12:17:48.787Z,16.25
2023-01-05T12:20:27.689Z,16.35
2023-01-05T12:23:42.136Z,16.57
2023-01-05T12:26:29.204Z,16.63
2023-01-05T12:35:51.513Z,15.04
2023-01-05T12:38:25.313Z,14.77
2023-01-05T12:41:11.013Z,14.54
2023-01-05T12:44:11.815Z,14.25
2023-01-05T12:46:47.836Z,14.20
2023-01-05T12:49:22.112Z,14.44
2023-01-05T12:52:15.991Z,14.66
2023-01-05T12:54:45.962Z,14.73
2023-01-05T12:57:16.685Z,14.80
2023-01-05T13:00:07.022Z,14.89
2023-01-05T13:02:42.777Z,15.01
2023-01-05T13:05:18.983Z,14.96
2023-01-05T13:08:01.127Z,14.94
2023-01-05T13:10:34.106Z,14.92
2023-01-05T13:13:08.432Z,15.09
2023-01-05T13:15:49.171Z,15.12
2023-01-05T13:18:18.043Z,15.18
2023-01-05T13:21:02.640Z,15.21
2023-01-05T13:23:37.662Z,15.18
2023-01-05T13:26:07.070Z,15.17
2023-01-05T13:28:35.152Z,15.18
2023-01-05T13:31:24.155Z,15.16
2023-01-05T13:34:06.512Z,15.09
2023-01-05T13:37:04.601Z,14.87
2023-01-05T13:39:54.445Z,14.53
2023-01-05T13:42:26.734Z,13.94
2023-01-05T13:45:05.961Z,13.29
2023-01-05T13:47:35.299Z,12.99
2023-01-05T13:50:38.386Z,12.79
2023-01-05T13:53:18.393Z,12.45
2023-01-05T13:55:51.781Z,12.25
2023-01-05T13:58:34.904Z,12.15
2023-01-05T14:01:05.069Z,12.05
2023-01-05T14:03:36.967Z,12.30
2023-01-05T14:06:08.846Z,12.69
2023-01-05T14:08:39.819Z,12.42
2023-01-05T14:11:09.119Z,12.23
2023-01-05T14:13:48.224Z,12.29
2023-01-05T14:16:33.595Z,12.55
2023-01-05T14:19:18.968Z,12.86
2023-01-05T14:21:51.263Z,13.10
2023-01-05T14:24:47.944Z,12.37
2023-01-05T14:27:20.789Z,11.75
2023-01-05T14:29:53.844Z,11.20
2023-01-05T14:32:30.166Z,11.09
2023-01-05T14:35:02.980Z,10.97
2023-01-05T14:37:38.148Z,10.50
2023-01-05T14:40:23.729Z,10.25
2023-01-05T14:42:51.051Z,10.05
2023-01-05T14:45:27.837Z,9.90
2023-01-05T14:47:57.567Z,9.82
2023-01-05T14:50:34.854Z,9.70
2023-01-05T14:53:17.179Z,9.31
2023-01-05T14:55:56.017Z,9.06
2023-01-05T14:58:38.482Z,9.01
2023-01-05T15:01:17.842Z,8.81
2023-01-05T15:03:52.425Z,8.65
2023-01-05T15:06:25.648Z,8.38
2023-01-05T15:09:10.015Z,8.26
2023-01-05T15:11:59.209Z,8.27
2023-01-05T15:14:33.075Z,8.35
2023-01-05T15:17:31.063Z,8.24
2023-01-05T15:20:49.313Z,8.16
2023-01-05T15:26:22.442Z,7.63
2023-01-05T15:29:27.461Z,7.61
2023-01-05T15:32:01.451Z,7.43
2023-01-05T15:34:40.687Z,7.28
2023-01-05T15:37:25.919Z,7.06
2023-01-05T15:39:56.482Z,6.96
2023-01-05T15:42:32.868Z,6.83
2023-01-05T15:45:01.123Z,6.83
2023-01-05T15:47:29.898Z,6.73
2023-01-05T15:50:00.215Z,6.59
2023-01-05T15:52:32.723Z,6.60
2023-01-05T15:55:23.237Z,6.54
2023-01-05T15:57:59.348Z,6.49
2023-01-05T16:00:29.342Z,6.57
2023-01-05T16:02:56.520Z,6.65
2023-01-05T16:05:28.414Z,6.71
2023-01-05T16:07:58.649Z,6.70
2023-01-05T16:10:35.862Z,6.59
2023-01-05T16:13:28.812Z,6.44
2023-01-05T16:15:57.977Z,6.33
2023-01-05T16:18:29.023Z,6.25
2023-01-05T16:20:56.945Z,6.32
2023-01-05T16:23:40.881Z,6.43
2023-01-05T16:26:16.953Z,6.55
2023-01-05T16:28:45.103Z,6.54
2023-01-05T16:31:14.298Z,6.44
2023-01-05T16:33:41.652Z,6.45
2023-01-05T16:36:22.509Z,6.41
2023-01-05T16:38:53.148Z,6.36
2023-01-05T16:41:26.476Z,6.36
2023-01-05T16:43:59.492Z,6.32
2023-01-05T16:46:32.278Z,6.15
2023-01-05T16:49:07.472Z,6.14
2023-01-05T16:51:36.094Z,6.24
2023-01-05T16:54:28.930Z,6.17
2023-01-05T16:56:59.377Z,6.00
2023-01-05T17:00:01.004Z,5.94
2023-01-05T17:02:41.148Z,5.86
2023-01-05T17:05:08.544Z,5.73
2023-01-05T17:07:41.518Z,5.67
2023-01-05T17:10:18.881Z,5.54
2023-01-05T17:12:56.803Z,5.44
2023-01-05T17:15:29.556Z,5.44
2023-01-05T17:17:57.208Z,5.37
2023-01-05T17:20:26.841Z,5.27
2023-01-05T17:22:56.761Z,5.22
2023-01-05T17:25:26.636Z,5.20
2023-01-05T17:27:53.754Z,5.22
2023-01-05T17:30:21.791Z,5.03
2023-01-05T17:32:49.080Z,4.97
2023-01-05T17:35:18.687Z,4.92
2023-01-05T17:37:47.274Z,4.94
2023-01-05T17:40:21.121Z,4.96
2023-01-05T17:42:50.790Z,4.99
2023-01-05T17:45:21.476Z,4.93
2023-01-05T17:47:51.531Z,4.92
2023-01-05T17:50:28.714Z,4.96
2023-01-05T17:53:00.179Z,4.95
2023-01-05T17:55:34.624Z,5.00
2023-01-05T17:58:07.208Z,4.99
2023-01-05T18:00:41.921Z,5.00
2023-01-05T18:03:10.394Z,4.92
2023-01-05T18:05:37.592Z,4.97
2023-01-05T18:10:33.150Z,5.45
2023-01-05T18:13:00.245Z,5.56
2023-01-05T18:18:04.362Z,5.75
2023-01-05T18:20:31.775Z,5.83
2023-01-05T18:22:58.929Z,5.93
2023-01-05T18:25:26.226Z,5.92
2023-01-05T18:27:53.275Z,5.93
2023-01-05T18:30:20.563Z,5.95
2023-01-05T18:32:47.649Z,5.97
2023-01-05T18:35:15.071Z,6.00
2023-01-05T18:37:42.079Z,5.96
2023-01-05T18:40:10.369Z,5.99
2023-01-05T18:42:38.062Z,5.95
2023-01-05T18:45:18.741Z,5.81
2023-01-05T18:47:56.750Z,5.73
2023-01-05T18:50:24.593Z,5.75
2023-01-05T18:52:51.764Z,5.77
2023-01-05T18:55:18.829Z,5.72
2023-01-05T18:57:45.729Z,5.71
2023-01-05T19:00:13.467Z,5.64
2023-01-05T19:02:40.863Z,5.62
2023-01-05T19:05:09.153Z,5.57
2023-01-05T19:07:36.773Z,5.35
2023-01-05T19:10:03.846Z,5.19
2023-01-05T19:12:30.861Z,4.98
2023-01-05T19:14:57.859Z,4.96
2023-01-05T19:17:24.828Z,4.89
2023-01-05T19:19:51.776Z,4.84
2023-01-05T19:22:18.699Z,4.68
2023-01-05T19:24:46.966Z,4.69
2023-01-05T19:27:13.880Z,4.76
2023-01-05T19:29:42.267Z,4.56
2023-01-05T19:32:09.326Z,4.39
2023-01-05T19:34:38.340Z,4.34
2023-01-05T19:37:06.530Z,4.47
2023-01-05T19:39:33.651Z,4.65
2023-01-05T19:42:00.801Z,4.69
2023-01-05T19:44:28.031Z,4.71
2023-01-05T19:46:58.284Z,4.62
2023-01-05T19:49:26.841Z,4.40
2023-01-05T19:51:56.925Z,4.26
2023-01-05T19:54:25.577Z,4.21
2023-01-05T19:56:54.983Z,4.25
2023-01-05T19:59:33.408Z,4.24
2023-01-05T20:02:01.982Z,4.18
2023-01-05T20:04:29.982Z,4.15
2023-01-05T20:06:57.611Z,4.15
2023-01-05T20:09:24.861Z,4.18
2023-01-05T20:12:05.746Z,4.25
2023-01-05T20:14:40.289Z,4.28
2023-01-05T20:17:11.731Z,4.30
2023-01-05T20:19:39.557Z,4.29
2023-01-05T20:22:08.055Z,4.28
2023-01-05T20:24:36.917Z,4.29
2023-01-05T20:27:25.718Z,4.25
2023-01-05T20:30:23.348Z,4.27
2023-01-05T20:32:52.802Z,4.33
2023-01-05T20:35:19.944Z,4.23
2023-01-05T20:37:46.877Z,4.05
2023-01-05T20:40:15.034Z,3.96
2023-01-05T20:45:26.226Z,3.76
2023-01-05T20:47:53.273Z,3.78
2023-01-05T20:50:20.312Z,3.85
2023-01-05T20:52:47.367Z,3.90
2023-01-05T20:55:17.845Z,3.95
2023-01-05T20:57:45.735Z,3.93
2023-01-05T21:00:14.799Z,4.00
2023-01-05T21:02:41.986Z,3.87
2023-01-05T21:05:10.840Z,3.77
2023-01-05T21:07:39.994Z,3.82
2023-01-05T21:10:08.413Z,3.73
2023-01-05T21:12:35.418Z,3.84
2023-01-05T21:15:03.756Z,3.94
2023-01-05T21:17:30.840Z,3.96
2023-01-05T21:19:58.510Z,3.86
2023-01-05T21:22:25.612Z,3.85
2023-01-05T21:24:52.641Z,3.90
2023-01-05T21:27:19.767Z,3.93
2023-01-05T21:29:46.716Z,3.95
2023-01-05T21:32:13.754Z,3.95
2023-01-05T21:34:40.839Z,3.91
2023-01-05T21:37:07.877Z,3.93
2023-01-05T21:39:37.691Z,3.89
2023-01-05T21:42:23.109Z,3.87
2023-01-05T21:44:49.943Z,3.87
2023-01-05T21:47:17.055Z,3.90
2023-01-05T21:49:43.957Z,4.01
2023-01-05T21:52:39.188Z,4.04
2023-01-05T21:55:32.770Z,4.26
2023-01-05T21:58:00.012Z,4.70
2023-01-05T22:00:27.633Z,4.92
2023-01-05T22:02:54.681Z,5.14
2023-01-05T22:05:24.493Z,5.33
2023-01-05T22:07:51.912Z,5.64
2023-01-05T22:10:18.957Z,6.28
2023-01-05T22:12:46.018Z,6.74
2023-01-05T22:15:13.020Z,7.18
2023-01-05T22:17:40.395Z,7.43
2023-01-05T22:20:08.200Z,7.79
2023-01-05T22:22:35.263Z,8.09
2023-01-05T22:25:02.400Z,8.27
2023-01-05T22:27:29.596Z,8.43
2023-01-05T22:29:56.717Z,8.59
2023-01-05T22:32:23.738Z,8.67
2023-01-05T22:34:53.241Z,8.79
2023-01-05T22:37:20.539Z,8.90
2023-01-05T22:39:49.555Z,8.96
2023-01-05T22:42:16.606Z,9.04
2023-01-05T22:44:43.606Z,9.08
2023-01-05T22:47:11.868Z,9.11
2023-01-05T22:49:38.985Z,9.16
2023-01-05T22:52:06.243Z,9.19
2023-01-05T22:54:33.917Z,9.21
2023-01-05T22:57:00.988Z,9.20
2023-01-05T22:59:31.037Z,9.18
2023-01-05T23:01:58.164Z,9.21
2023-01-05T23:04:27.630Z,9.21
2023-01-05T23:06:57.084Z,9.23
2023-01-05T23:09:26.443Z,9.21
2023-01-05T23:11:53.539Z,9.17
2023-01-05T23:14:20.563Z,9.19
2023-01-05T23:16:48.027Z,9.10
2023-01-05T23:19:17.114Z,9.08
2023-01-05T23:21:46.346Z,9.10
2023-01-05T23:24:15.793Z,9.03
2023-01-05T23:26:43.765Z,8.99
2023-01-05T23:29:10.947Z,8.98
2023-01-05T23:31:37.967Z,8.92
2023-01-05T23:34:05.059Z,8.88
2023-01-05T23:36:34.287Z,8.86
2023-01-05T23:39:01.535Z,8.82
2023-01-05T23:41:28.636Z,8.82
2023-01-05T23:43:58.385Z,8.78
2023-01-05T23:46:25.650Z,8.76
2023-01-05T23:48:52.783Z,8.77
2023-01-05T23:51:20.020Z,8.77
2023-01-05T23:53:52.221Z,8.78
2023-01-05T23:56:24.580Z,8.72
2023-01-05T23:59:00.495Z,8.64
